Morgantown, West Virginia
Current Conditions -  °F | °C
As of 3:53 AM on Monday 24 Nov 2014 (Local Time) from KMGW Reporting Station
Overcast Overcast  
Wind Chill: 65°   Ceiling: 4700
Heat Index: 65°   Visibility: 10mi
Dew Point: 46°   Wind: 9mph
Humidity: 50%   Direction: 210°SSW
Pressure: 29.47"   Gusts: 21mph
Location:  39.63°N, 79.96°W
Report Text: KMGW 240853Z AUTO 21008G18KT 170V230 10SM OVC047 18/08 A2947 RMK AO2 SLP972 T01830078 55007 TSNO
Loading
Personal Weather Stations






























Interactive Weather Map New forecast layout! Learn more

10-Day Weather Forecast

Advertisements
Track Severe Weather on mobile